.
WxDataArchive / Data Records for 2015-03-29
2015-03-28 March 2015 2015-03-30

Data Records for Sunday, 29 March 2015

Time	Temp	Chill	HIndex	Humid	Dewpt	 Wind 	HiWind	WindDir	Rain 	Barom
-----	----	-----	------	-----	-----	------	------	-------	-----	-----
00:00	22.7	22.7	22.7	63	12.0	0	0	---	0.00	30.345 
00:05	22.5	22.5	22.5	63	11.8	0	0	---	0.00	30.345 
00:10	22.4	22.4	22.4	65	12.4	0	0	---	0.00	30.345 
00:15	22.4	22.4	22.4	65	12.4	0	0	---	0.00	30.347 
00:20	22.2	22.2	22.2	66	12.6	0	0	---	0.00	30.347 
00:25	22.1	22.1	22.1	66	12.5	0	0	---	0.00	30.347 
00:30	21.9	21.9	21.9	66	12.3	0	0	---	0.00	30.341 
00:35	21.8	21.8	21.8	66	12.2	0	0	---	0.00	30.341 
00:40	21.8	21.8	21.8	67	12.6	0	0	---	0.00	30.341 
00:45	21.8	21.8	21.8	68	12.9	0	0	---	0.00	30.345 
00:50	21.6	21.6	21.6	69	13.0	0	0	---	0.00	30.345 
00:55	21.6	21.6	21.6	69	13.0	0	0	---	0.00	30.345 
01:00	21.4	21.4	21.4	69	12.8	0	0	---	0.00	30.347 
01:05	21.3	21.3	21.3	70	13.1	0	0	---	0.00	30.347 
01:10	21.3	21.3	21.3	71	13.4	0	0	---	0.00	30.347 
01:15	21.3	21.3	21.3	71	13.4	0	0	---	0.00	30.336 
01:20	21.3	21.3	21.3	72	13.7	0	0	---	0.00	30.336 
01:25	21.4	21.4	21.4	72	13.8	0	0	---	0.00	30.336 
01:30	21.6	21.6	21.6	72	14.0	0	0	---	0.00	30.338 
01:35	21.6	21.6	21.6	72	14.0	0	0	---	0.00	30.338 
01:40	21.4	21.4	21.4	72	13.8	0	0	---	0.00	30.338 
01:45	21.6	21.6	21.6	72	14.0	0	0	---	0.00	30.335 
01:50	21.6	21.6	21.6	72	14.0	0	0	---	0.00	30.335 
01:55	21.8	21.8	21.8	73	14.5	0	0	---	0.00	30.335 
02:00	21.8	21.8	21.8	73	14.5	0	0	---	0.00	30.335 
02:05	21.9	21.9	21.9	73	14.6	0	0	---	0.00	30.335 
02:10	22.1	22.1	22.1	73	14.8	0	0	---	0.00	30.335 
02:15	22.2	22.2	22.2	73	14.9	0	0	---	0.00	30.330 
02:20	22.2	22.2	22.2	73	14.9	0	0	---	0.00	30.330 
02:25	22.4	22.4	22.4	72	14.8	0	0	---	0.00	30.330 
02:30	22.4	22.4	22.4	72	14.8	0	0	---	0.00	30.332 
02:35	22.5	22.5	22.5	72	14.9	0	0	---	0.00	30.332 
02:40	22.5	22.5	22.5	72	14.9	0	0	---	0.00	30.332 
02:45	22.5	22.5	22.5	72	14.9	0	0	---	0.00	30.324 
02:50	22.5	22.5	22.5	72	14.9	0	0	---	0.00	30.324 
02:55	22.7	22.7	22.7	71	14.7	0	0	---	0.00	30.324 
03:00	22.7	22.7	22.7	71	14.7	0	0	---	0.00	30.319 
03:05	22.7	22.7	22.7	71	14.7	0	0	---	0.00	30.319 
03:10	22.5	22.5	22.5	71	14.5	0	0	---	0.00	30.319 
03:15	22.5	22.5	22.5	71	14.5	0	0	---	0.00	30.314 
03:20	22.7	22.7	22.7	71	14.7	0	0	---	0.00	30.314 
03:25	22.7	22.7	22.7	71	14.7	0	0	---	0.00	30.314 
03:30	22.7	22.7	22.7	71	14.7	0	0	---	0.00	30.313 
03:35	22.7	22.7	22.7	71	14.7	0	0	---	0.00	30.313 
03:40	22.9	22.9	22.9	71	14.9	0	1	315	0.00	30.313 
03:45	22.9	22.9	22.9	71	14.9	0	1	---	0.00	30.315 
03:50	22.9	22.9	22.9	71	14.9	0	0	---	0.00	30.315 
03:55	23.0	23.0	23.0	71	15.0	0	1	315	0.00	30.315 
04:00	23.2	23.2	23.2	70	14.9	0	0	---	0.00	30.311 
04:05	23.2	23.2	23.2	70	14.9	0	0	---	0.00	30.311 
04:10	23.0	23.0	23.0	70	14.7	0	0	---	0.00	30.311 
04:15	23.0	23.0	23.0	70	14.7	0	0	---	0.00	30.303 
04:20	23.2	23.2	23.2	70	14.9	0	1	315	0.00	30.303 
04:25	23.2	23.2	23.2	70	14.9	0	1	315	0.00	30.303 
04:30	23.3	23.3	23.3	69	14.7	0	0	---	0.00	30.297 
04:35	23.3	23.3	23.3	69	14.7	0	1	315	0.00	30.297 
04:40	23.3	23.3	23.3	69	14.7	0	1	315	0.00	30.297 
04:45	23.5	23.5	23.5	69	14.9	0	1	315	0.00	30.296 
04:50	23.5	23.5	23.5	69	14.9	0	1	315	0.00	30.296 
04:55	23.5	23.5	23.5	69	14.9	0	1	315	0.00	30.296 
05:00	23.6	23.6	23.6	69	14.9	0	1	315	0.00	30.287 
05:05	23.6	23.6	23.6	69	14.9	0	1	315	0.00	30.287 
05:10	23.6	23.6	23.6	69	14.9	0	1	315	0.00	30.287 
05:15	23.5	23.5	23.5	69	14.9	0	1	315	0.00	30.280 
05:20	23.3	23.3	23.3	69	14.7	0	1	315	0.00	30.280 
05:25	23.3	23.3	23.3	69	14.7	0	1	315	0.00	30.280 
05:30	23.3	23.3	23.3	69	14.7	0	0	---	0.00	30.279 
05:35	23.2	23.2	23.2	69	14.6	0	0	---	0.00	30.279 
05:40	23.0	23.0	23.0	69	14.4	0	1	315	0.00	30.279 
05:45	23.0	23.0	23.0	70	14.7	0	1	315	0.00	30.281 
05:50	23.0	23.0	23.0	70	14.7	0	1	315	0.00	30.281 
05:55	23.0	23.0	23.0	70	14.7	0	0	---	0.00	30.281 
06:00	22.9	22.9	22.9	70	14.6	0	0	---	0.00	30.282 
06:05	22.7	22.7	22.7	70	14.4	0	0	---	0.00	30.282 
06:10	22.7	22.7	22.7	70	14.4	0	0	---	0.00	30.282 
06:15	22.5	22.5	22.5	70	14.2	0	0	---	0.00	30.284 
06:20	22.4	22.4	22.4	71	14.4	0	0	---	0.00	30.284 
06:25	22.4	22.4	22.4	71	14.4	0	0	---	0.00	30.284 
06:30	22.4	22.4	22.4	71	14.4	0	1	315	0.00	30.286 
06:35	22.4	22.4	22.4	71	14.4	0	1	315	0.00	30.286 
06:40	22.5	22.5	22.5	71	14.5	0	0	---	0.00	30.286 
06:45	22.5	22.5	22.5	71	14.5	0	0	---	0.00	30.289 
06:50	22.4	22.4	22.4	71	14.4	0	0	---	0.00	30.289 
06:55	22.4	22.4	22.4	72	14.8	0	0	---	0.00	30.289 
07:00	22.4	22.4	22.4	72	14.8	0	1	315	0.00	30.290 
07:05	22.5	22.5	22.5	72	14.9	0	1	315	0.00	30.290 
07:10	22.9	22.9	22.9	71	14.9	0	2	315	0.00	30.290 
07:15	23.2	23.2	23.2	71	15.2	0	2	315	0.00	30.284 
07:20	23.3	23.3	23.3	70	15.0	0	1	315	0.00	30.284 
07:25	23.3	23.3	23.3	71	15.3	0	0	---	0.00	30.284 
07:30	23.3	23.3	23.3	70	15.0	0	1	315	0.00	30.289 
07:35	23.5	23.5	23.5	70	15.2	0	1	315	0.00	30.289 
07:40	23.6	23.6	23.6	70	15.3	0	1	315	0.00	30.289 
07:45	23.8	23.8	23.8	70	15.5	0	2	315	0.00	30.294 
07:50	24.1	24.1	24.1	69	15.4	0	1	315	0.00	30.294 
07:55	24.4	24.4	24.4	69	15.7	0	1	315	0.00	30.294 
08:00	24.8	24.8	24.8	68	15.8	1	3	90	0.00	30.290 
08:05	25.3	25.3	25.3	67	15.9	0	1	90	0.00	30.290 
08:10	25.7	25.7	25.7	66	15.9	0	3	90	0.00	30.290 
08:15	26.0	26.0	26.0	64	15.5	1	3	90	0.00	30.284 
08:20	26.3	26.3	26.3	63	15.4	1	5	90	0.00	30.284 
08:25	26.6	26.6	26.6	63	15.7	0	2	90	0.00	30.284 
08:30	26.9	26.9	26.9	63	16.0	1	3	45	0.00	30.281 
08:35	27.3	27.3	27.3	62	16.0	1	3	45	0.00	30.281 
08:40	27.9	27.9	27.9	61	16.2	1	7	315	0.00	30.281 
08:45	28.2	28.2	28.2	61	16.5	1	4	68	0.00	30.281 
08:50	28.5	28.5	28.5	60	16.4	1	3	90	0.00	30.281 
08:55	28.8	28.8	28.8	60	16.7	1	5	112	0.00	30.281 
09:00	29.1	29.1	29.1	59	16.6	1	7	68	0.00	30.269 
09:05	29.3	29.3	29.3	59	16.8	2	7	68	0.00	30.269 
09:10	29.5	29.5	29.5	59	17.0	2	6	68	0.00	30.269 
09:15	29.8	29.8	29.8	58	16.8	2	6	90	0.00	30.264 
09:20	30.1	30.1	30.1	58	17.1	2	7	112	0.00	30.264 
09:25	30.1	30.1	30.1	57	16.7	2	6	90	0.00	30.264 
09:30	30.4	30.4	30.4	57	17.0	2	9	90	0.00	30.252 
09:35	30.7	30.7	30.7	57	17.3	2	6	90	0.00	30.252 
09:40	31.0	31.0	31.0	57	17.6	2	5	68	0.00	30.252 
09:45	31.5	31.5	31.5	56	17.6	2	6	90	0.00	30.263 
09:50	32.1	32.1	32.1	57	18.6	1	4	270	0.00	30.263 
09:55	32.5	32.5	32.5	55	18.2	1	4	248	0.00	30.263 
10:00	32.8	32.8	32.8	54	18.0	1	4	90	0.00	30.265 
10:05	32.8	32.8	32.8	53	17.6	2	5	248	0.00	30.265 
10:10	33.2	33.2	33.2	54	18.4	2	5	90	0.00	30.265 
10:15	33.8	33.8	33.8	54	18.9	2	7	248	0.00	30.266 
10:20	34.3	34.3	34.3	53	19.0	2	8	112	0.00	30.266 
10:25	34.9	34.9	34.9	52	19.1	1	3	68	0.00	30.266 
10:30	34.9	34.9	34.9	50	18.2	3	6	90	0.00	30.252 
10:35	34.7	34.7	34.7	50	18.0	1	6	90	0.00	30.252 
10:40	34.6	34.6	34.6	50	17.9	1	5	248	0.00	30.252 
10:45	35.0	35.0	35.0	51	18.7	1	5	225	0.00	30.245 
10:50	35.2	35.2	35.2	50	18.4	2	9	292	0.00	30.245 
10:55	35.6	35.6	35.6	50	18.8	1	6	248	0.00	30.245 
11:00	36.3	36.3	36.3	48	18.5	3	10	90	0.00	30.231 
11:05	36.9	36.9	36.9	49	19.5	2	4	112	0.00	30.231 
11:10	36.9	36.9	36.9	47	18.6	3	9	68	0.00	30.231 
11:15	37.2	37.2	37.2	47	18.8	2	5	68	0.00	30.233 
11:20	37.8	37.8	37.8	48	19.9	2	5	248	0.00	30.233 
11:25	37.9	37.9	37.9	47	19.5	2	5	270	0.00	30.233 
11:30	38.5	38.5	38.5	46	19.5	3	9	90	0.00	30.231 
11:35	38.6	38.6	38.6	47	20.1	3	9	90	0.00	30.231 
11:40	38.8	35.9	38.8	46	19.8	4	11	112	0.00	30.231 
11:45	38.8	38.8	38.8	47	20.3	1	7	270	0.00	30.216 
11:50	39.1	39.1	39.1	46	20.1	3	15	68	0.00	30.216 
11:55	39.1	39.1	39.1	45	19.6	2	10	248	0.00	30.216 
12:00	39.6	39.6	39.6	46	20.5	3	10	90	0.00	30.199 
12:05	40.3	40.3	40.3	46	21.2	2	7	90	0.00	30.199 
12:10	40.9	40.9	40.9	44	20.7	2	7	68	0.00	30.199 
12:15	41.1	41.1	41.1	43	20.3	2	5	248	0.00	30.180 
12:20	40.8	40.8	40.8	42	19.5	3	9	68	0.00	30.180 
12:25	40.2	40.2	40.2	43	19.5	3	11	90	0.00	30.180 
12:30	40.1	40.1	40.1	45	20.5	1	6	248	0.00	30.174 
12:35	40.9	40.9	40.9	44	20.7	2	5	90	0.00	30.174 
12:40	41.3	41.3	41.3	44	21.0	2	6	90	0.00	30.174 
12:45	41.3	38.8	41.3	40	18.8	4	12	68	0.00	30.153 
12:50	41.1	41.1	41.1	43	20.3	3	10	90	0.00	30.153 
12:55	41.2	41.2	41.2	43	20.4	1	12	90	0.00	30.153 
13:00	40.8	40.8	40.8	41	18.9	3	9	90	0.00	30.143 
13:05	40.6	40.6	40.6	44	20.4	2	6	90	0.00	30.143 
13:10	40.8	38.2	40.8	42	19.5	4	10	90	0.00	30.143 
13:15	41.2	41.2	41.2	44	21.0	2	5	90	0.00	30.133 
13:20	41.9	41.9	41.9	45	22.1	2	6	68	0.00	30.133 
13:25	42.6	40.3	42.6	41	20.6	4	10	90	0.00	30.133 
13:30	42.9	42.9	42.9	40	20.3	3	9	270	0.00	30.112 
13:35	42.9	42.9	42.9	39	19.7	3	8	270	0.00	30.112 
13:40	42.8	42.8	42.8	42	21.3	2	9	68	0.00	30.112 
13:45	43.1	40.1	43.1	39	19.8	5	12	90	0.00	30.095 
13:50	43.2	43.2	43.2	39	19.9	3	12	90	0.00	30.095 
13:55	43.2	43.2	43.2	38	19.3	2	7	270	0.00	30.095 
14:00	43.3	41.1	43.3	39	20.0	4	14	90	0.00	30.082 
14:05	43.2	41.0	43.2	39	19.9	4	9	90	0.00	30.082 
14:10	43.2	43.2	43.2	39	19.9	3	9	90	0.00	30.082 
14:15	43.3	43.3	43.3	38	19.4	2	6	90	0.00	30.068 
14:20	43.1	43.1	43.1	39	19.8	2	6	68	0.00	30.068 
14:25	42.6	42.6	42.6	39	19.4	3	12	68	0.00	30.068 
14:30	42.6	42.6	42.6	39	19.4	2	6	248	0.00	30.055 
14:35	42.8	42.8	42.8	39	19.6	3	7	112	0.00	30.055 
14:40	43.1	43.1	43.1	40	20.4	2	7	90	0.00	30.055 
14:45	43.1	40.1	43.1	37	18.6	5	15	90	0.00	30.024 
14:50	43.3	43.3	43.3	39	20.0	3	12	112	0.00	30.024 
14:55	43.6	41.5	43.6	37	19.1	4	11	68	0.00	30.024 
15:00	43.9	41.8	43.9	37	19.3	4	12	90	0.00	30.005 
15:05	44.1	44.1	44.1	36	18.9	3	8	90	0.00	30.005 
15:10	44.2	44.2	44.2	35	18.3	3	7	68	0.00	30.005 
15:15	43.9	41.1	43.9	35	18.0	5	14	90	0.00	29.990 
15:20	43.6	43.6	43.6	35	17.8	3	9	90	0.00	29.990 
15:25	43.6	43.6	43.6	37	19.1	3	9	90	0.00	29.990 
15:30	43.5	43.5	43.5	37	19.0	2	9	90	0.00	29.975 
15:35	43.3	41.1	43.3	35	17.5	4	11	112	0.00	29.975 
15:40	43.3	43.3	43.3	36	18.2	3	9	292	0.00	29.975 
15:45	43.3	43.3	43.3	35	17.5	2	4	292	0.00	29.970 
15:50	43.3	43.3	43.3	36	18.2	3	9	112	0.00	29.970 
15:55	43.2	43.2	43.2	35	17.4	3	9	112	0.00	29.970 
16:00	42.8	40.6	42.8	38	19.0	4	10	90	0.00	29.952 
16:05	42.5	42.5	42.5	39	19.3	2	7	90	0.00	29.952 
16:10	42.1	42.1	42.1	43	21.2	3	10	112	0.00	29.952 
16:15	41.3	41.3	41.3	47	22.6	3	7	90	0.00	29.942 
16:20	40.9	40.9	40.9	51	24.2	2	5	90	0.00	29.942 
16:25	40.6	40.6	40.6	52	24.4	2	7	90	0.00	29.942 
16:30	40.5	40.5	40.5	52	24.3	1	3	22	0.00	29.945 
16:35	40.5	40.5	40.5	50	23.3	1	8	270	0.00	29.945 
16:40	40.6	40.6	40.6	50	23.4	2	6	270	0.00	29.945 
16:45	40.6	40.6	40.6	50	23.4	1	6	270	0.00	29.940 
16:50	40.8	40.8	40.8	49	23.1	2	6	270	0.00	29.940 
16:55	40.8	40.8	40.8	48	22.6	1	9	248	0.00	29.940 
17:00	40.9	40.9	40.9	47	22.2	2	7	270	0.00	29.928 
17:05	40.8	40.8	40.8	48	22.6	2	5	225	0.00	29.928 
17:10	40.8	40.8	40.8	47	22.1	1	5	248	0.00	29.928 
17:15	40.8	40.8	40.8	47	22.1	1	5	248	0.00	29.918 
17:20	40.8	40.8	40.8	47	22.1	1	5	248	0.00	29.918 
17:25	40.9	40.9	40.9	47	22.2	1	5	248	0.00	29.918 
17:30	40.9	40.9	40.9	47	22.2	2	7	248	0.00	29.897 
17:35	41.1	41.1	41.1	47	22.4	2	11	68	0.00	29.897 
17:40	41.2	41.2	41.2	46	22.0	2	7	68	0.00	29.897 
17:45	41.2	41.2	41.2	46	22.0	2	9	90	0.00	29.883 
17:50	41.3	41.3	41.3	46	22.1	2	5	68	0.00	29.883 
17:55	41.3	41.3	41.3	46	22.1	1	7	68	0.00	29.883 
18:00	41.3	41.3	41.3	46	22.1	2	9	90	0.00	29.884 
18:05	41.3	41.3	41.3	47	22.6	3	10	90	0.00	29.884 
18:10	41.2	41.2	41.2	48	23.0	2	11	90	0.00	29.884 
18:15	41.1	41.1	41.1	48	22.9	1	5	270	0.00	29.897 
18:20	41.1	41.1	41.1	47	22.4	1	5	270	0.00	29.897 
18:25	41.2	41.2	41.2	48	23.0	1	4	248	0.00	29.897 
18:30	41.3	41.3	41.3	47	22.6	1	2	248	0.00	29.898 
18:35	41.5	41.5	41.5	46	22.3	2	5	248	0.00	29.898 
18:40	41.8	41.8	41.8	46	22.6	1	5	248	0.00	29.898 
18:45	41.8	41.8	41.8	47	23.1	2	6	248	0.00	29.901 
18:50	41.6	41.6	41.6	48	23.4	1	4	248	0.00	29.901 
18:55	41.6	41.6	41.6	47	22.9	1	6	248	0.00	29.901 
19:00	41.8	41.8	41.8	46	22.6	1	2	248	0.00	29.899 
19:05	41.8	41.8	41.8	46	22.6	1	7	270	0.00	29.899 
19:10	41.9	41.9	41.9	46	22.6	1	7	248	0.00	29.899 
19:15	42.1	42.1	42.1	46	22.8	1	5	248	0.00	29.888 
19:20	42.1	42.1	42.1	46	22.8	1	4	248	0.00	29.888 
19:25	42.1	42.1	42.1	47	23.3	1	4	248	0.00	29.888 
19:30	42.1	42.1	42.1	47	23.3	1	4	248	0.00	29.880 
19:35	42.1	42.1	42.1	47	23.3	1	5	248	0.00	29.880 
19:40	42.1	42.1	42.1	48	23.8	1	10	248	0.00	29.880 
19:45	42.1	42.1	42.1	49	24.3	1	7	248	0.00	29.880 
19:50	42.1	42.1	42.1	50	24.8	1	6	270	0.00	29.880 
19:55	42.1	42.1	42.1	50	24.8	1	4	248	0.00	29.880 
20:00	42.1	42.1	42.1	51	25.3	2	7	248	0.00	29.883 
20:05	42.1	42.1	42.1	52	25.8	2	7	248	0.00	29.883 
20:10	41.9	41.9	41.9	53	26.0	1	5	248	0.00	29.883 
20:15	41.9	41.9	41.9	54	26.5	1	4	248	0.00	29.876 
20:20	41.8	41.8	41.8	55	26.8	1	6	248	0.00	29.876 
20:25	41.8	41.8	41.8	55	26.8	2	5	248	0.00	29.876 
20:30	41.8	41.8	41.8	56	27.3	1	5	248	0.00	29.876 
20:35	41.6	41.6	41.6	57	27.5	2	7	248	0.00	29.876 
20:40	41.6	41.6	41.6	57	27.5	1	5	248	0.00	29.876 
20:45	41.6	41.6	41.6	58	27.9	1	5	248	0.00	29.872 
20:50	41.5	41.5	41.5	58	27.8	1	5	248	0.00	29.872 
20:55	41.2	41.2	41.2	59	28.0	1	5	248	0.00	29.872 
21:00	41.1	41.1	41.1	59	27.9	1	6	248	0.00	29.860 
21:05	41.1	41.1	41.1	61	28.7	1	3	248	0.00	29.860 
21:10	40.9	40.9	40.9	61	28.5	1	2	248	0.00	29.860 
21:15	40.9	40.9	40.9	62	28.9	1	4	248	0.00	29.854 
21:20	40.9	40.9	40.9	62	28.9	1	4	248	0.00	29.854 
21:25	40.9	40.9	40.9	62	28.9	1	4	248	0.00	29.854 
21:30	40.9	40.9	40.9	63	29.3	2	5	248	0.00	29.841 
21:35	40.9	40.9	40.9	63	29.3	1	5	248	0.00	29.841 
21:40	41.1	41.1	41.1	64	29.9	1	5	248	0.00	29.841 
21:45	41.2	41.2	41.2	64	30.0	2	6	248	0.00	29.843 
21:50	41.2	41.2	41.2	64	30.0	1	5	248	0.00	29.843 
21:55	41.3	41.3	41.3	65	30.4	1	4	248	0.00	29.843 
22:00	41.5	41.5	41.5	65	30.6	2	6	248	0.00	29.840 
22:05	41.5	41.5	41.5	65	30.6	1	6	248	0.00	29.840 
22:10	41.6	41.6	41.6	65	30.7	2	11	248	0.00	29.840 
22:15	41.8	41.8	41.8	65	30.9	2	10	248	0.00	29.836 
22:20	41.8	41.8	41.8	65	30.9	1	5	248	0.00	29.836 
22:25	41.9	41.9	41.9	66	31.4	2	8	248	0.00	29.836 
22:30	42.1	42.1	42.1	67	31.9	2	5	248	0.00	29.840 
22:35	42.2	42.2	42.2	69	32.8	1	5	248	0.00	29.840 
22:40	42.2	42.2	42.2	71	33.5	2	7	248	0.00	29.840 
22:45	42.1	42.1	42.1	72	33.7	1	4	248	0.00	29.837 
22:50	42.1	42.1	42.1	74	34.4	1	6	248	0.00	29.837 
22:55	42.1	42.1	42.1	74	34.4	1	5	225	0.00	29.837 
23:00	42.2	42.2	42.2	75	34.9	2	7	248	0.00	29.836 
23:05	42.6	42.6	42.6	74	34.9	2	6	248	0.00	29.836 
23:10	42.9	42.9	42.9	74	35.2	3	7	248	0.00	29.836 
23:15	43.3	43.3	43.3	73	35.2	2	7	248	0.00	29.834 
23:20	43.5	43.5	43.5	73	35.4	2	7	270	0.00	29.834 
23:25	43.9	43.9	43.9	72	35.5	2	7	248	0.00	29.834 
23:30	44.1	44.1	44.1	72	35.7	3	6	248	0.00	29.832 
23:35	44.3	44.3	44.3	71	35.5	3	6	248	0.00	29.832 
23:40	44.6	44.6	44.6	71	35.8	3	7	248	0.00	29.832 
23:45	44.8	44.8	44.8	71	36.0	2	5	248	0.00	29.839 
23:50	44.9	44.9	44.9	71	36.1	3	7	248	0.00	29.839 
23:55	45.2	43.3	45.2	70	36.0	4	7	248	0.00	29.839 

CoCoRaHS
IN-AL-39
A2 Web Hosting
Creative Commons License
GoDaddy
search engine by freefind advanced

loaded 2018-11-14 00:45:56 • last modified 2010-11-18 10:43:29
Privacy PolicyDisclaimer
• wx.awcolley.com is powered by PmWiki v.2002016 •
• all content (unless otherwise noted) © 2018 A W Colley